Time;durP1;ratioP1;P1;durP2;ratioP2;P2;SDS_P1;SDS_P2;PMS_P1;PMS_P2;Temp;Humidity;BMP_temperature;BMP_pressure;BME280_temperature;BME280_humidity;BME280_pressure;Samples;Min_cycle;Max_cycle;Signal;HPM_P1;HPM_P2
2023/08/09 00:00:33;;;;;;;11.18;6.10;;;12.80;99.90;;;;;;4998700;28;90183;-36
2023/08/09 00:03:02;;;;;;;14.70;6.53;;;12.80;99.90;;;;;;4999525;28;90541;-34
2023/08/09 00:05:28;;;;;;;9.27;5.55;;;12.80;99.90;;;;;;4999061;28;90043;-35
2023/08/09 00:07:54;;;;;;;7.43;5.72;;;12.80;99.90;;;;;;4999731;28;90845;-31
2023/08/09 00:10:21;;;;;;;8.85;6.43;;;12.90;99.90;;;;;;4998587;28;88073;-36
2023/08/09 00:12:47;;;;;;;15.85;6.43;;;12.90;99.90;;;;;;4999767;28;89836;-32
2023/08/09 00:15:13;;;;;;;10.10;7.15;;;12.80;99.90;;;;;;4998949;28;89627;-35
2023/08/09 00:17:38;;;;;;;8.65;7.68;;;12.90;99.90;;;;;;4998517;28;90063;-37
2023/08/09 00:20:05;;;;;;;13.68;8.98;;;12.80;99.90;;;;;;4999383;28;89942;-34
2023/08/09 00:22:30;;;;;;;14.32;9.20;;;12.90;99.90;;;;;;4999176;28;90426;-31
2023/08/09 00:24:59;;;;;;;11.20;8.13;;;12.90;99.90;;;;;;4998733;28;90194;-32
2023/08/09 00:27:25;;;;;;;15.65;9.63;;;12.90;99.90;;;;;;4999307;28;90520;-33
2023/08/09 00:29:51;;;;;;;14.63;9.90;;;12.90;99.90;;;;;;4998984;28;87607;-33
2023/08/09 00:32:17;;;;;;;14.07;10.48;;;12.90;99.90;;;;;;4999407;28;89934;-32
2023/08/09 00:34:43;;;;;;;17.25;11.40;;;12.90;99.90;;;;;;4997941;28;88521;-34
2023/08/09 00:37:08;;;;;;;12.88;11.35;;;12.90;99.90;;;;;;4997708;28;89329;-32
2023/08/09 00:39:34;;;;;;;14.73;10.40;;;12.90;99.90;;;;;;4998470;28;89470;-36
2023/08/09 00:42:00;;;;;;;15.00;10.27;;;12.90;99.90;;;;;;4998658;28;89808;-35
2023/08/09 00:44:25;;;;;;;13.93;11.38;;;13.00;99.90;;;;;;4998403;28;89475;-38
2023/08/09 00:46:51;;;;;;;16.92;12.57;;;12.90;99.90;;;;;;4998227;28;89980;-34
2023/08/09 00:49:17;;;;;;;15.77;12.73;;;12.90;99.90;;;;;;4996266;28;90228;-32
2023/08/09 00:51:44;;;;;;;16.23;11.90;;;12.90;99.90;;;;;;4998511;28;90264;-31
2023/08/09 00:54:10;;;;;;;15.73;12.20;;;12.90;99.90;;;;;;4997758;28;89392;-33
2023/08/09 00:56:36;;;;;;;13.02;11.48;;;12.90;99.90;;;;;;4997921;28;88962;-34
2023/08/09 00:59:02;;;;;;;12.73;10.57;;;12.90;99.90;;;;;;4997425;28;88335;-37
2023/08/09 01:01:28;;;;;;;16.70;12.63;;;12.90;99.90;;;;;;4997505;28;90544;-34
2023/08/09 01:03:54;;;;;;;19.25;13.60;;;13.00;99.90;;;;;;4997994;28;89230;-38
2023/08/09 01:06:39;;;;;;;14.52;12.40;;;13.00;99.90;;;;;;4998020;28;90957;-34
2023/08/09 01:09:29;;;;;;;17.88;13.52;;;13.00;99.90;;;;;;4996904;28;88856;-33
2023/08/09 01:12:08;;;;;;;15.40;13.50;;;13.00;99.90;;;;;;4997331;28;89153;-33
2023/08/09 01:14:36;;;;;;;15.52;12.65;;;13.00;99.90;;;;;;4996238;28;90560;-33
2023/08/09 01:17:03;;;;;;;18.77;12.75;;;12.90;99.90;;;;;;4996728;28;90600;-32
2023/08/09 01:19:40;;;;;;;20.60;13.43;;;12.90;99.90;;;;;;4997522;28;90190;-37
2023/08/09 01:22:35;;;;;;;15.60;12.45;;;12.90;99.90;;;;;;4997911;28;90159;-37
2023/08/09 01:25:06;;;;;;;14.23;12.57;;;12.90;99.90;;;;;;4994554;28;90400;-36
2023/08/09 01:27:33;;;;;;;21.60;12.20;;;12.90;99.90;;;;;;4998040;28;90709;-36
2023/08/09 01:30:00;;;;;;;17.60;11.73;;;12.90;99.90;;;;;;4997057;28;89270;-33
2023/08/09 01:32:27;;;;;;;18.95;13.07;;;12.90;99.90;;;;;;4997453;28;89693;-33
2023/08/09 01:34:53;;;;;;;18.53;12.43;;;12.90;99.90;;;;;;4997295;28;89731;-32
2023/08/09 01:37:40;;;;;;;16.88;13.40;;;12.90;99.90;;;;;;4997053;28;89315;-31
2023/08/09 01:40:09;;;;;;;12.43;6.60;;;12.90;99.90;;;;;;4984234;28;89380;-32
2023/08/09 01:42:39;;;;;;;19.10;13.38;;;12.90;99.90;;;;;;4997975;28;90306;-32
2023/08/09 01:45:08;;;;;;;18.00;14.00;;;12.80;99.90;;;;;;4978962;28;89643;-30
2023/08/09 01:47:38;;;;;;;;;;;12.80;99.90;;;;;;4997163;28;89393;-36
2023/08/09 01:50:15;;;;;;;19.15;12.32;;;12.80;99.90;;;;;;4999592;28;88731;-35
2023/08/09 01:52:41;;;;;;;16.27;13.45;;;12.80;99.90;;;;;;4997432;28;90189;-33
2023/08/09 01:55:07;;;;;;;15.18;12.68;;;12.80;99.90;;;;;;4997402;28;90092;-31
2023/08/09 01:57:32;;;;;;;15.48;12.52;;;12.80;99.90;;;;;;4996989;28;89380;-32
2023/08/09 01:59:58;;;;;;;18.50;14.25;;;12.80;99.90;;;;;;4997904;28;88630;-33
2023/08/09 02:02:24;;;;;;;19.73;14.05;;;12.80;99.90;;;;;;4999532;28;90241;-33
2023/08/09 02:04:50;;;;;;;18.77;13.25;;;12.70;99.90;;;;;;5000161;28;90436;-39
2023/08/09 02:07:15;;;;;;;14.50;12.02;;;12.70;99.90;;;;;;4999894;28;90460;-35
2023/08/09 02:09:41;;;;;;;18.27;13.50;;;12.80;99.90;;;;;;5000486;28;89144;-37
2023/08/09 02:12:07;;;;;;;19.80;14.18;;;12.70;99.90;;;;;;5000871;28;89170;-31
2023/08/09 02:14:32;;;;;;;15.85;13.68;;;12.70;99.90;;;;;;4999474;28;89447;-33
2023/08/09 02:16:59;;;;;;;17.67;13.10;;;12.70;99.90;;;;;;5000303;28;89933;-33
2023/08/09 02:19:24;;;;;;;16.17;13.27;;;12.70;99.90;;;;;;5000159;28;87965;-32
2023/08/09 02:21:50;;;;;;;24.05;16.08;;;12.70;99.90;;;;;;5000510;28;90297;-37
2023/08/09 02:24:16;;;;;;;20.08;13.98;;;12.60;99.90;;;;;;5000227;28;89564;-34
2023/08/09 02:26:42;;;;;;;17.88;14.65;;;12.60;99.90;;;;;;4999708;28;90352;-31
2023/08/09 02:29:08;;;;;;;20.65;16.02;;;12.60;99.90;;;;;;4999947;28;89701;-36
2023/08/09 02:31:34;;;;;;;12.90;8.68;;;12.60;99.90;;;;;;4999562;28;90349;-31
2023/08/09 02:34:00;;;;;;;16.83;13.52;;;12.60;99.90;;;;;;5000755;28;89623;-39
2023/08/09 02:36:25;;;;;;;17.63;14.13;;;12.60;99.90;;;;;;5000075;28;90050;-32
2023/08/09 02:38:51;;;;;;;16.08;12.52;;;12.60;99.90;;;;;;4982017;28;88952;-33
2023/08/09 02:41:17;;;;;;;18.52;13.65;;;12.60;99.90;;;;;;4999977;28;89819;-34
2023/08/09 02:43:43;;;;;;;20.17;16.42;;;12.60;99.90;;;;;;4999979;28;89387;-35
2023/08/09 02:46:09;;;;;;;19.15;15.00;;;12.60;99.90;;;;;;4999415;28;88606;-34
2023/08/09 02:48:34;;;;;;;17.63;14.68;;;12.50;99.90;;;;;;5000039;28;90366;-31
2023/08/09 02:51:01;;;;;;;22.33;14.25;;;12.50;99.90;;;;;;4999202;28;90946;-36
2023/08/09 02:53:52;;;;;;;16.80;12.98;;;12.50;99.90;;;;;;4999348;28;90538;-32
2023/08/09 02:56:17;;;;;;;17.73;13.80;;;12.50;99.90;;;;;;4957409;28;90556;-32
2023/08/09 02:58:43;;;;;;;19.67;14.18;;;12.50;99.90;;;;;;4993659;28;88943;-38
2023/08/09 03:01:08;;;;;;;19.42;13.98;;;12.50;99.90;;;;;;4998292;28;89285;-34
2023/08/09 03:03:34;;;;;;;26.73;15.02;;;12.40;99.90;;;;;;4999878;28;89722;-34
2023/08/09 03:06:00;;;;;;;19.55;14.02;;;12.40;99.90;;;;;;4999349;28;89199;-36
2023/08/09 03:08:25;;;;;;;14.70;12.50;;;12.40;99.90;;;;;;4999744;28;88876;-36
2023/08/09 03:10:51;;;;;;;18.95;13.80;;;12.40;99.90;;;;;;4999651;28;91758;-31
2023/08/09 03:13:17;;;;;;;20.02;14.55;;;12.40;99.90;;;;;;4999007;28;90733;-33
2023/08/09 03:15:43;;;;;;;17.58;14.50;;;12.40;99.90;;;;;;4999276;28;89472;-32
2023/08/09 03:18:09;;;;;;;17.42;14.15;;;12.30;99.90;;;;;;4998541;28;90847;-32
2023/08/09 03:20:35;;;;;;;18.48;14.30;;;12.30;99.90;;;;;;4999294;28;90273;-34
2023/08/09 03:23:01;;;;;;;20.48;14.27;;;12.20;99.90;;;;;;4999846;28;90568;-33
2023/08/09 03:25:26;;;;;;;19.27;14.75;;;12.20;99.90;;;;;;4998559;28;89267;-31
2023/08/09 03:27:52;;;;;;;18.85;14.55;;;12.20;99.90;;;;;;4999580;28;90831;-34
2023/08/09 03:30:17;;;;;;;18.60;14.27;;;12.20;99.90;;;;;;4997967;28;90106;-34
2023/08/09 03:32:43;;;;;;;20.80;14.43;;;12.20;99.90;;;;;;4999724;28;89825;-36
2023/08/09 03:35:10;;;;;;;19.40;14.85;;;12.20;99.90;;;;;;4998724;28;89576;-31
2023/08/09 03:37:36;;;;;;;20.77;15.57;;;12.10;99.90;;;;;;4998881;28;89208;-32
2023/08/09 03:40:04;;;;;;;19.13;15.57;;;12.10;99.90;;;;;;4998893;28;89132;-35
2023/08/09 03:42:30;;;;;;;20.23;16.77;;;12.10;99.90;;;;;;4998868;28;90328;-33
2023/08/09 03:44:56;;;;;;;21.65;16.08;;;12.00;99.90;;;;;;4998699;28;90109;-35
2023/08/09 03:47:21;;;;;;;21.85;17.73;;;12.00;99.90;;;;;;4999688;28;89197;-37
2023/08/09 03:49:47;;;;;;;20.98;16.65;;;12.00;99.90;;;;;;4998104;28;90233;-31
2023/08/09 03:52:12;;;;;;;23.13;17.70;;;12.00;99.90;;;;;;4998594;28;90106;-38
2023/08/09 03:54:38;;;;;;;21.42;17.90;;;12.00;99.90;;;;;;4998886;28;89360;-34
2023/08/09 03:57:06;;;;;;;21.30;17.70;;;12.00;99.90;;;;;;4998984;28;88194;-37
2023/08/09 03:59:32;;;;;;;23.85;17.23;;;12.00;99.90;;;;;;4998644;28;90717;-36
2023/08/09 04:01:58;;;;;;;18.83;16.35;;;11.90;99.90;;;;;;4998821;28;89873;-32
2023/08/09 04:04:23;;;;;;;20.65;16.77;;;12.00;99.90;;;;;;4998501;28;89255;-37
2023/08/09 04:06:49;;;;;;;22.30;18.02;;;12.00;99.90;;;;;;4998988;28;90091;-35
2023/08/09 04:09:15;;;;;;;23.83;19.55;;;12.00;99.90;;;;;;4997695;28;90197;-34
2023/08/09 04:11:40;;;;;;;21.98;16.67;;;12.00;99.90;;;;;;4999229;28;88460;-36
2023/08/09 04:14:06;;;;;;;24.08;18.45;;;12.00;99.90;;;;;;4997816;28;89980;-35
2023/08/09 04:16:31;;;;;;;23.23;17.00;;;12.00;99.90;;;;;;4998448;28;89022;-33
2023/08/09 04:18:57;;;;;;;20.10;17.02;;;12.00;99.90;;;;;;4998868;28;91647;-31
2023/08/09 04:21:23;;;;;;;21.88;17.40;;;12.00;99.90;;;;;;4998229;28;90295;-36
2023/08/09 04:23:49;;;;;;;23.80;17.40;;;11.90;99.90;;;;;;4997924;28;89855;-34
2023/08/09 04:26:15;;;;;;;21.23;16.23;;;12.00;99.90;;;;;;4998623;28;89761;-33
2023/08/09 04:28:41;;;;;;;11.65;7.95;;;12.00;99.90;;;;;;4998373;28;89894;-34
2023/08/09 04:31:06;;;;;;;19.70;16.35;;;12.00;99.90;;;;;;4998072;28;90415;-31
2023/08/09 04:33:32;;;;;;;20.60;17.02;;;12.00;99.90;;;;;;4998020;28;90356;-35
2023/08/09 04:35:57;;;;;;;19.95;16.30;;;12.00;99.90;;;;;;4998218;28;89314;-33
2023/08/09 04:38:23;;;;;;;20.40;14.93;;;12.00;99.90;;;;;;4997474;28;90689;-31
2023/08/09 04:40:49;;;;;;;13.68;10.35;;;12.00;99.90;;;;;;4998567;28;90298;-36
2023/08/09 04:43:14;;;;;;;18.20;15.35;;;12.00;99.90;;;;;;4997724;28;89596;-35
2023/08/09 04:45:40;;;;;;;19.30;15.73;;;12.00;99.90;;;;;;4998667;28;88850;-35
2023/08/09 04:48:06;;;;;;;14.18;7.85;;;12.10;99.90;;;;;;4998248;28;90933;-33
2023/08/09 04:50:32;;;;;;;18.83;16.15;;;12.30;99.90;;;;;;4998193;28;90625;-33
2023/08/09 04:52:59;;;;;;;17.63;15.65;;;12.40;99.90;;;;;;4998762;28;89421;-33
2023/08/09 04:55:24;;;;;;;14.93;12.77;;;12.50;99.90;;;;;;4979441;28;89692;-35
2023/08/09 04:57:51;;;;;;;17.65;15.43;;;12.60;99.90;;;;;;4979968;28;90153;-39
2023/08/09 05:00:16;;;;;;;17.48;14.98;;;12.70;99.90;;;;;;4979507;28;89630;-36
2023/08/09 05:02:42;;;;;;;18.25;14.38;;;12.80;99.90;;;;;;4997885;28;89548;-34
2023/08/09 05:05:09;;;;;;;18.42;14.95;;;12.90;99.90;;;;;;4997914;28;88373;-32
2023/08/09 05:07:36;;;;;;;17.50;13.93;;;13.00;99.90;;;;;;4998301;28;90284;-31
2023/08/09 05:10:03;;;;;;;18.15;14.27;;;13.00;99.90;;;;;;4997487;28;91773;-34
2023/08/09 05:12:29;;;;;;;15.70;13.13;;;13.20;99.90;;;;;;4998073;28;90649;-34
2023/08/09 05:14:55;;;;;;;16.45;13.15;;;13.20;99.90;;;;;;4999014;28;88945;-32
2023/08/09 05:17:20;;;;;;;14.20;12.70;;;13.40;99.90;;;;;;4996803;28;89598;-35
2023/08/09 05:19:46;;;;;;;14.48;11.45;;;13.50;99.90;;;;;;4997374;28;90903;-37
2023/08/09 05:22:12;;;;;;;13.43;12.00;;;13.50;99.90;;;;;;4997618;28;90885;-36
2023/08/09 05:24:37;;;;;;;16.48;13.18;;;13.60;99.90;;;;;;4997913;28;89421;-34
2023/08/09 05:27:03;;;;;;;15.00;11.90;;;13.70;99.90;;;;;;4997594;28;92215;-33
2023/08/09 05:29:29;;;;;;;14.80;12.73;;;13.70;99.90;;;;;;4997252;28;90197;-35
2023/08/09 05:31:54;;;;;;;13.90;11.32;;;13.90;99.90;;;;;;4997477;28;89601;-36
2023/08/09 05:34:20;;;;;;;13.35;12.05;;;13.80;99.90;;;;;;4997449;28;88052;-36
2023/08/09 05:36:46;;;;;;;14.40;12.25;;;13.90;99.90;;;;;;5000894;28;90416;-34
2023/08/09 05:39:12;;;;;;;14.70;11.77;;;14.00;99.90;;;;;;4983492;28;90797;-31
2023/08/09 05:41:38;;;;;;;12.95;11.57;;;14.00;99.90;;;;;;5000288;28;89572;-34
2023/08/09 05:44:04;;;;;;;15.80;12.98;;;14.20;99.90;;;;;;5000641;28;88955;-35
2023/08/09 05:46:30;;;;;;;10.85;9.85;;;14.20;99.90;;;;;;5000935;28;90216;-34
2023/08/09 05:48:56;;;;;;;11.80;10.35;;;14.40;99.90;;;;;;5002162;28;89659;-38
2023/08/09 05:51:22;;;;;;;11.65;10.13;;;14.60;99.90;;;;;;5001263;28;90118;-34
2023/08/09 05:53:48;;;;;;;12.15;10.88;;;14.60;99.90;;;;;;5001088;28;89236;-38
2023/08/09 05:56:14;;;;;;;11.77;10.57;;;14.70;99.90;;;;;;5000778;28;90217;-33
2023/08/09 05:58:39;;;;;;;11.18;10.07;;;14.70;99.90;;;;;;5000773;28;89378;-31
2023/08/09 06:01:07;;;;;;;12.05;10.45;;;14.90;99.90;;;;;;5001057;28;89729;-39
2023/08/09 06:03:40;;;;;;;11.55;10.32;;;15.00;99.90;;;;;;5001268;28;89706;-35
2023/08/09 06:06:13;;;;;;;11.30;10.07;;;15.00;99.90;;;;;;5000947;28;90653;-39
2023/08/09 06:08:39;;;;;;;11.88;10.68;;;15.10;99.90;;;;;;5000278;28;90748;-35
2023/08/09 06:11:05;;;;;;;10.98;9.93;;;15.20;99.90;;;;;;5000746;28;90571;-37
2023/08/09 06:13:31;;;;;;;11.50;9.32;;;15.00;99.90;;;;;;5001421;28;89298;-31
2023/08/09 06:15:57;;;;;;;10.40;8.63;;;15.20;99.90;;;;;;5000797;28;90417;-33
2023/08/09 06:18:23;;;;;;;9.85;8.85;;;15.40;99.90;;;;;;5000810;28;90069;-38
2023/08/09 06:20:50;;;;;;;9.95;8.07;;;15.40;99.90;;;;;;5001629;28;90434;-35
2023/08/09 06:23:16;;;;;;;8.85;7.72;;;15.40;99.90;;;;;;5000415;28;89270;-33
2023/08/09 06:25:42;;;;;;;9.45;8.55;;;15.40;99.90;;;;;;5001874;28;89858;-33
2023/08/09 06:28:08;;;;;;;7.60;6.88;;;15.40;99.90;;;;;;4999783;28;90521;-34
2023/08/09 06:30:34;;;;;;;7.78;6.95;;;15.50;99.90;;;;;;4999049;28;89602;-38
2023/08/09 06:32:59;;;;;;;7.47;6.78;;;15.60;99.90;;;;;;4999474;28;89964;-33
2023/08/09 06:35:25;;;;;;;7.95;7.25;;;15.60;99.90;;;;;;4998288;28;90149;-35
2023/08/09 06:37:52;;;;;;;7.60;5.93;;;15.70;99.90;;;;;;4998798;28;89930;-33
2023/08/09 06:40:18;;;;;;;6.97;6.28;;;15.80;99.90;;;;;;4998903;28;89358;-34
2023/08/09 06:42:44;;;;;;;6.10;5.32;;;16.00;99.90;;;;;;4998581;28;89457;-35
2023/08/09 06:45:10;;;;;;;6.07;5.57;;;16.30;99.90;;;;;;4998950;28;90933;-34
2023/08/09 06:47:36;;;;;;;6.47;5.65;;;16.70;99.90;;;;;;4997539;28;89773;-37
2023/08/09 06:50:04;;;;;;;4.60;4.28;;;17.00;99.90;;;;;;4998258;28;89358;-40
2023/08/09 06:52:31;;;;;;;5.50;4.97;;;17.40;99.90;;;;;;4999156;28;88511;-31
2023/08/09 06:54:56;;;;;;;5.88;5.30;;;17.60;99.90;;;;;;4996730;28;90968;-36
2023/08/09 06:57:22;;;;;;;7.55;4.80;;;17.70;99.90;;;;;;4997447;28;90621;-39
2023/08/09 06:59:48;;;;;;;5.35;4.95;;;18.00;99.90;;;;;;4998712;28;90591;-32
2023/08/09 07:02:14;;;;;;;7.70;4.38;;;18.30;99.90;;;;;;4998232;28;88596;-32
2023/08/09 07:04:40;;;;;;;4.35;4.05;;;18.60;99.90;;;;;;4999217;28;89965;-32
2023/08/09 07:07:05;;;;;;;7.13;4.32;;;18.60;99.90;;;;;;4998714;28;90832;-32
2023/08/09 07:09:31;;;;;;;3.83;3.45;;;18.70;99.90;;;;;;4998001;28;89774;-32
2023/08/09 07:11:57;;;;;;;4.47;4.07;;;18.70;99.90;;;;;;4998679;28;88797;-35
2023/08/09 07:14:23;;;;;;;4.45;4.03;;;19.00;99.90;;;;;;4996959;28;90215;-34
2023/08/09 07:16:49;;;;;;;4.95;3.47;;;19.20;99.90;;;;;;4998078;28;89558;-36
2023/08/09 07:19:15;;;;;;;3.92;3.53;;;19.00;99.90;;;;;;4991459;28;89763;-33
2023/08/09 07:21:40;;;;;;;4.65;3.78;;;19.00;99.90;;;;;;4997172;28;90333;-37
2023/08/09 07:24:06;;;;;;;3.75;2.83;;;19.60;99.90;;;;;;4990148;28;89145;-32
2023/08/09 07:26:32;;;;;;;3.75;2.70;;;19.70;99.90;;;;;;4991921;28;89791;-31
2023/08/09 07:28:59;;;;;;;2.55;2.35;;;19.90;99.90;;;;;;4998217;28;89617;-33
2023/08/09 07:31:24;;;;;;;3.38;2.70;;;20.10;99.90;;;;;;4996886;28;89205;-37
2023/08/09 07:33:51;;;;;;;2.97;2.70;;;20.20;99.90;;;;;;4997158;28;90370;-36
2023/08/09 07:36:17;;;;;;;3.60;2.90;;;20.70;99.90;;;;;;4997266;28;90026;-35
2023/08/09 07:38:43;;;;;;;4.32;3.13;;;20.90;99.90;;;;;;4997737;28;89345;-32
2023/08/09 07:41:09;;;;;;;2.85;2.22;;;20.70;99.90;;;;;;4996698;28;89207;-38
2023/08/09 07:43:35;;;;;;;2.90;2.67;;;20.70;99.90;;;;;;5000949;28;88720;-31
2023/08/09 07:46:04;;;;;;;2.42;2.22;;;21.10;99.90;;;;;;5003090;28;90501;-35
2023/08/09 07:48:30;;;;;;;5.28;2.67;;;21.30;99.90;;;;;;4996514;28;89357;-35
2023/08/09 07:50:56;;;;;;;2.28;2.08;;;21.00;99.90;;;;;;4998481;28;89002;-36
2023/08/09 07:53:22;;;;;;;2.58;2.10;;;21.10;99.90;;;;;;4996585;28;90617;-33
2023/08/09 07:55:48;;;;;;;3.85;2.30;;;21.40;99.90;;;;;;4997150;28;89072;-32
2023/08/09 07:58:14;;;;;;;2.33;2.20;;;20.80;99.90;;;;;;4996519;28;89097;-34
2023/08/09 08:00:40;;;;;;;2.35;2.15;;;21.10;99.90;;;;;;4994114;28;88832;-34
2023/08/09 08:03:06;;;;;;;2.80;2.10;;;21.20;99.90;;;;;;4990497;28;90296;-34
2023/08/09 08:05:31;;;;;;;1.88;1.70;;;21.50;99.90;;;;;;4992311;28;91349;-33
2023/08/09 08:07:57;;;;;;;2.47;1.85;;;21.20;99.90;;;;;;4993693;28;90270;-35
2023/08/09 08:10:23;;;;;;;3.85;2.10;;;21.00;99.90;;;;;;4995515;28;89488;-33
2023/08/09 08:12:49;;;;;;;4.15;2.47;;;21.00;99.90;;;;;;4996523;28;90002;-34
2023/08/09 08:15:16;;;;;;;2.47;2.20;;;21.30;99.90;;;;;;5002928;28;88973;-34
2023/08/09 08:17:42;;;;;;;3.92;2.10;;;21.70;99.90;;;;;;5036027;22;89937;-32
2023/08/09 08:20:15;;;;;;;2.53;1.67;;;21.70;99.90;;;;;;5006330;28;87599;-31
2023/08/09 08:22:47;;;;;;;4.70;2.55;;;21.60;99.90;;;;;;5003230;28;89970;-37
2023/08/09 08:25:14;;;;;;;2.38;2.00;;;21.60;99.90;;;;;;4996512;28;89898;-36
2023/08/09 08:27:45;;;;;;;3.10;2.20;;;21.60;99.90;;;;;;5005267;28;89154;-34
2023/08/09 08:30:19;;;;;;;2.65;2.38;;;21.70;99.90;;;;;;5010101;28;88632;-32
2023/08/09 08:32:46;;;;;;;2.65;1.98;;;22.40;99.90;;;;;;4989707;28;90749;-35
2023/08/09 08:35:13;;;;;;;2.72;2.10;;;22.00;99.90;;;;;;4995885;28;90645;-34
2023/08/09 08:37:42;;;;;;;2.17;2.07;;;22.10;99.90;;;;;;4996496;28;90130;-34
2023/08/09 08:40:11;;;;;;;4.03;2.70;;;21.70;99.90;;;;;;5007015;28;88514;-34
2023/08/09 08:42:36;;;;;;;1.70;1.52;;;21.90;99.90;;;;;;5004584;28;90174;-34
2023/08/09 08:45:09;;;;;;;2.95;2.40;;;21.90;99.90;;;;;;5000450;28;89448;-32
2023/08/09 08:47:39;;;;;;;3.33;2.40;;;21.40;99.90;;;;;;5010796;28;89297;-32
2023/08/09 08:50:05;;;;;;;4.25;1.90;;;21.20;99.90;;;;;;4996398;28;88725;-35
2023/08/09 08:52:33;;;;;;;1.90;1.67;;;21.10;99.90;;;;;;4996602;28;90218;-33
2023/08/09 08:54:59;;;;;;;2.92;2.30;;;21.60;99.90;;;;;;4996442;28;92028;-33
2023/08/09 08:57:26;;;;;;;2.80;2.17;;;21.90;99.90;;;;;;4995918;28;89564;-36
2023/08/09 08:59:53;;;;;;;2.67;1.60;;;21.20;99.90;;;;;;4996461;28;90508;-34
2023/08/09 09:02:19;;;;;;;2.25;2.00;;;21.90;99.90;;;;;;4995783;28;90245;-33
2023/08/09 09:04:45;;;;;;;1.67;1.58;;;22.00;99.90;;;;;;4996149;28;88263;-36
2023/08/09 09:07:12;;;;;;;1.70;1.52;;;21.80;99.90;;;;;;4983518;28;91609;-32
2023/08/09 09:09:57;;;;;;;1.85;1.27;;;21.80;99.90;;;;;;5003206;28;90355;-35
2023/08/09 09:12:22;;;;;;;1.40;1.30;;;21.30;99.90;;;;;;4996157;28;90594;-38
2023/08/09 09:14:51;;;;;;;2.30;1.55;;;20.80;99.90;;;;;;4996381;28;88944;-33
2023/08/09 09:17:19;;;;;;;2.15;1.92;;;21.00;99.90;;;;;;4978050;28;89564;-32
2023/08/09 09:19:45;;;;;;;2.70;1.35;;;20.80;99.90;;;;;;4978463;28;89640;-33
2023/08/09 09:22:28;;;;;;;2.10;1.45;;;20.70;99.90;;;;;;4995449;28;88576;-37
2023/08/09 09:24:58;;;;;;;2.05;1.40;;;20.50;99.90;;;;;;4977064;28;92507;-35
2023/08/09 09:27:33;;;;;;;1.75;1.60;;;20.50;99.90;;;;;;4995976;28;90562;-35
2023/08/09 09:30:13;;;;;;;3.22;1.75;;;20.90;99.90;;;;;;4995748;28;89799;-37
2023/08/09 09:33:00;;;;;;;1.60;1.50;;;20.80;99.90;;;;;;4994116;28;89780;-32
2023/08/09 09:35:28;;;;;;;3.00;1.50;;;20.70;99.90;;;;;;4978837;28;90254;-32
2023/08/09 09:38:04;;;;;;;2.95;1.90;;;20.60;99.90;;;;;;4992158;28;89409;-35
2023/08/09 09:40:34;;;;;;;1.52;1.33;;;20.60;99.90;;;;;;4978213;28;89922;-36
2023/08/09 09:43:01;;;;;;;2.53;1.45;;;20.40;99.90;;;;;;4995257;28;89391;-32
2023/08/09 09:45:29;;;;;;;4.00;1.57;;;20.40;99.90;;;;;;4995370;28;89286;-35
2023/08/09 09:47:57;;;;;;;2.25;1.63;;;20.90;99.90;;;;;;4995221;28;89462;-36
2023/08/09 09:50:25;;;;;;;1.67;1.58;;;21.10;99.90;;;;;;4995299;28;89774;-36
2023/08/09 09:52:52;;;;;;;3.17;1.70;;;21.20;99.90;;;;;;4995543;28;90512;-33
2023/08/09 09:55:20;;;;;;;2.65;1.63;;;20.80;99.90;;;;;;4995621;28;90122;-34
2023/08/09 09:57:47;;;;;;;2.42;1.58;;;20.60;99.90;;;;;;4994859;28;89605;-33
2023/08/09 10:00:14;;;;;;;4.03;2.25;;;20.80;99.90;;;;;;4995546;28;88370;-36
2023/08/09 10:02:49;;;;;;;2.42;1.70;;;21.40;99.90;;;;;;4995285;28;90118;-31
2023/08/09 10:05:21;;;;;;;3.72;1.75;;;21.70;99.90;;;;;;4995977;28;89062;-35
2023/08/09 10:07:49;;;;;;;1.65;1.55;;;21.50;97.70;;;;;;4984212;28;89608;-32
2023/08/09 10:10:16;;;;;;;2.42;1.45;;;21.40;99.90;;;;;;4994812;28;88298;-35
2023/08/09 10:12:47;;;;;;;1.88;1.77;;;21.70;99.90;;;;;;4994819;28;89193;-32
2023/08/09 10:15:16;;;;;;;1.80;1.63;;;21.70;94.80;;;;;;4994065;28;90317;-36
2023/08/09 10:17:43;;;;;;;1.40;1.30;;;21.70;99.90;;;;;;4995514;28;90224;-32
2023/08/09 10:20:11;;;;;;;3.72;1.67;;;21.80;99.90;;;;;;4995267;28;88040;-33
2023/08/09 10:22:38;;;;;;;1.60;1.50;;;22.00;99.90;;;;;;4997551;28;90196;-33
2023/08/09 10:25:04;;;;;;;2.90;1.75;;;21.70;92.60;;;;;;4998836;28;89879;-35
2023/08/09 10:27:50;;;;;;;1.98;1.88;;;22.00;93.40;;;;;;4998557;28;90083;-34
2023/08/09 10:30:19;;;;;;;2.50;1.73;;;21.60;87.90;;;;;;4999160;28;88709;-32
2023/08/09 10:33:03;;;;;;;4.22;1.20;;;21.20;95.30;;;;;;4998387;28;89922;-35
2023/08/09 10:35:50;;;;;;;4.80;2.00;;;21.00;99.90;;;;;;5003285;28;88600;-34
2023/08/09 10:38:21;;;;;;;2.73;1.67;;;20.70;99.90;;;;;;5001555;28;90400;-34
2023/08/09 10:40:51;;;;;;;7.68;2.83;;;21.30;99.90;;;;;;5012609;28;88542;-33
2023/08/09 10:43:20;;;;;;;2.10;1.27;;;21.40;99.90;;;;;;5003312;28;90309;-35
2023/08/09 10:45:48;;;;;;;3.50;1.35;;;21.10;99.90;;;;;;5003419;28;89501;-33
2023/08/09 10:48:24;;;;;;;1.63;1.45;;;21.20;99.90;;;;;;4998241;28;89131;-34
2023/08/09 10:51:08;;;;;;;5.32;1.65;;;20.70;99.90;;;;;;4998452;28;89193;-36
2023/08/09 10:53:56;;;;;;;1.67;1.45;;;20.70;99.90;;;;;;4998258;28;90740;-34
2023/08/09 10:56:37;;;;;;;2.15;1.00;;;20.60;99.90;;;;;;4985509;28;89085;-37
2023/08/09 10:59:23;;;;;;;2.55;1.92;;;20.70;99.90;;;;;;4998117;28;89720;-37
2023/08/09 11:01:49;;;;;;;2.75;1.83;;;20.50;99.90;;;;;;4998421;28;89458;-35
2023/08/09 11:04:18;;;;;;;1.88;1.55;;;20.10;99.90;;;;;;4997047;28;90448;-34
2023/08/09 11:06:49;;;;;;;3.70;1.70;;;20.10;99.90;;;;;;4997116;28;90610;-34
2023/08/09 11:09:17;;;;;;;1.92;1.50;;;20.20;99.90;;;;;;4997025;28;90202;-35
2023/08/09 11:11:48;;;;;;;1.50;1.40;;;20.50;99.90;;;;;;4998008;28;88714;-35
2023/08/09 11:14:15;;;;;;;1.30;1.30;;;20.40;99.90;;;;;;4984248;28;89890;-33
2023/08/09 11:16:42;;;;;;;1.67;1.30;;;20.40;99.90;;;;;;5001354;28;89753;-33
2023/08/09 11:19:09;;;;;;;2.72;1.42;;;20.70;99.90;;;;;;4997306;28;89448;-34
2023/08/09 11:21:43;;;;;;;2.95;2.08;;;20.90;99.90;;;;;;4997813;28;88807;-35
2023/08/09 11:24:12;;;;;;;2.55;1.50;;;21.10;99.90;;;;;;4996824;28;89976;-35
2023/08/09 11:26:48;;;;;;;1.50;1.40;;;21.10;95.90;;;;;;4978523;28;89605;-36
2023/08/09 11:29:17;;;;;;;2.55;1.55;;;21.20;99.90;;;;;;4997895;28;89859;-39
2023/08/09 11:31:45;;;;;;;3.05;2.00;;;21.50;99.90;;;;;;4997354;28;89146;-34
2023/08/09 11:34:13;;;;;;;5.50;1.10;;;21.70;97.30;;;;;;4997488;28;91779;-34
2023/08/09 11:36:40;;;;;;;;;;;21.80;99.90;;;;;;4998017;28;89923;-35
2023/08/09 11:39:06;;;;;;;1.88;1.77;;;21.80;93.10;;;;;;4999016;28;89024;-38
2023/08/09 11:41:55;;;;;;;1.75;1.48;;;21.30;93.90;;;;;;4998120;28;88922;-35
2023/08/09 11:44:31;;;;;;;1.67;1.10;;;21.00;92.10;;;;;;4997347;28;88938;-35
2023/08/09 11:47:01;;;;;;;5.07;2.50;;;21.10;99.10;;;;;;4997308;28;90065;-34
2023/08/09 11:49:32;;;;;;;2.53;2.03;;;20.70;99.90;;;;;;4997028;28;89419;-33
2023/08/09 11:52:02;;;;;;;2.03;1.40;;;20.50;99.90;;;;;;4997544;28;90061;-32
2023/08/09 11:54:29;;;;;;;2.17;1.70;;;20.50;99.90;;;;;;4997181;28;92316;-34
2023/08/09 11:56:55;;;;;;;2.73;1.50;;;20.50;99.90;;;;;;4979189;28;90186;-36
2023/08/09 11:59:23;;;;;;;2.35;1.80;;;20.80;99.90;;;;;;4997028;28;90370;-35
2023/08/09 12:01:51;;;;;;;;;;;20.60;99.90;;;;;;4997748;28;89492;-34
2023/08/09 12:04:21;;;;;;;2.10;1.90;;;20.80;99.90;;;;;;4997721;28;90223;-35
2023/08/09 12:06:51;;;;;;;1.65;1.40;;;20.70;99.90;;;;;;4997781;28;90197;-38
2023/08/09 12:09:35;;;;;;;1.90;1.67;;;20.80;99.90;;;;;;4996899;28;89678;-37
2023/08/09 12:12:19;;;;;;;1.77;1.20;;;20.70;99.90;;;;;;4997232;28;89467;-32
2023/08/09 12:14:51;;;;;;;2.47;2.28;;;20.90;99.90;;;;;;4997261;28;89824;-37
2023/08/09 12:17:25;;;;;;;1.50;1.35;;;21.20;99.70;;;;;;4995651;28;89313;-37
2023/08/09 12:19:55;;;;;;;2.85;1.92;;;21.40;99.90;;;;;;4996691;28;89813;-34
2023/08/09 12:22:21;;;;;;;2.42;2.22;;;21.00;99.90;;;;;;4984289;28;89543;-36
2023/08/09 12:24:47;;;;;;;3.03;2.40;;;21.30;99.90;;;;;;4996236;28;90048;-37
2023/08/09 12:27:13;;;;;;;1.80;1.70;;;21.30;99.90;;;;;;4996694;28;89934;-37
2023/08/09 12:29:38;;;;;;;1.83;1.70;;;21.20;90.90;;;;;;4996292;28;89735;-35
2023/08/09 12:32:05;;;;;;;1.98;1.83;;;20.90;99.90;;;;;;4997338;28;88896;-34
2023/08/09 12:34:30;;;;;;;1.67;1.52;;;21.10;99.90;;;;;;4996564;28;90659;-34
2023/08/09 12:36:57;;;;;;;2.60;1.88;;;21.40;99.90;;;;;;4996771;28;90009;-32
2023/08/09 12:39:23;;;;;;;2.92;1.80;;;21.40;99.90;;;;;;4996396;28;89618;-38
2023/08/09 12:41:48;;;;;;;1.60;1.23;;;21.50;99.90;;;;;;4997338;28;89169;-34